sensor_id;sensor_type;location;lat;lon;timestamp;temperature;humidity
18317;DHT22;9284;52.298;21.164;2023-07-13T00:00:07;18.10;1.00
18317;DHT22;9284;52.298;21.164;2023-07-13T00:02:40;18.10;1.00
18317;DHT22;9284;52.298;21.164;2023-07-13T00:05:09;18.00;1.00
18317;DHT22;9284;52.298;21.164;2023-07-13T00:07:39;18.00;1.00
18317;DHT22;9284;52.298;21.164;2023-07-13T00:10:08;18.00;1.00
18317;DHT22;9284;52.298;21.164;2023-07-13T00:12:38;18.00;1.00
18317;DHT22;9284;52.298;21.164;2023-07-13T00:15:13;17.90;1.00
18317;DHT22;9284;52.298;21.164;2023-07-13T00:17:43;17.90;1.00
18317;DHT22;9284;52.298;21.164;2023-07-13T00:20:12;17.90;1.00
18317;DHT22;9284;52.298;21.164;2023-07-13T00:22:42;17.90;1.00
18317;DHT22;9284;52.298;21.164;2023-07-13T00:25:11;17.80;1.00
18317;DHT22;9284;52.298;21.164;2023-07-13T00:27:43;17.80;1.00
18317;DHT22;9284;52.298;21.164;2023-07-13T00:30:13;17.70;1.00
18317;DHT22;9284;52.298;21.164;2023-07-13T00:32:41;17.70;9.00
18317;DHT22;9284;52.298;21.164;2023-07-13T00:35:09;17.70;10.70
18317;DHT22;9284;52.298;21.164;2023-07-13T00:37:38;17.70;2.00
18317;DHT22;9284;52.298;21.164;2023-07-13T00:40:10;17.70;1.90
18317;DHT22;9284;52.298;21.164;2023-07-13T00:42:40;17.70;4.30
18317;DHT22;9284;52.298;21.164;2023-07-13T00:48:10;17.70;1.00
18317;DHT22;9284;52.298;21.164;2023-07-13T00:50:39;17.70;5.70
18317;DHT22;9284;52.298;21.164;2023-07-13T00:53:08;17.70;1.00
18317;DHT22;9284;52.298;21.164;2023-07-13T00:55:39;17.70;6.50
18317;DHT22;9284;52.298;21.164;2023-07-13T00:58:07;17.70;4.70
18317;DHT22;9284;52.298;21.164;2023-07-13T01:00:37;17.70;21.10
18317;DHT22;9284;52.298;21.164;2023-07-13T01:03:06;17.70;18.80
18317;DHT22;9284;52.298;21.164;2023-07-13T01:05:35;17.80;5.40
18317;DHT22;9284;52.298;21.164;2023-07-13T01:08:04;17.80;1.00
18317;DHT22;9284;52.298;21.164;2023-07-13T01:10:33;17.70;1.00
18317;DHT22;9284;52.298;21.164;2023-07-13T01:13:09;17.70;1.00
18317;DHT22;9284;52.298;21.164;2023-07-13T01:15:39;17.80;1.00
18317;DHT22;9284;52.298;21.164;2023-07-13T01:18:13;17.70;1.00
18317;DHT22;9284;52.298;21.164;2023-07-13T01:20:52;17.70;1.00
18317;DHT22;9284;52.298;21.164;2023-07-13T01:23:22;17.70;1.00
18317;DHT22;9284;52.298;21.164;2023-07-13T01:25:51;17.70;1.00
18317;DHT22;9284;52.298;21.164;2023-07-13T01:28:20;17.70;1.00
18317;DHT22;9284;52.298;21.164;2023-07-13T01:30:48;17.70;1.00
18317;DHT22;9284;52.298;21.164;2023-07-13T01:33:17;17.70;1.00
18317;DHT22;9284;52.298;21.164;2023-07-13T01:35:47;17.80;1.00
18317;DHT22;9284;52.298;21.164;2023-07-13T01:38:18;17.70;1.00
18317;DHT22;9284;52.298;21.164;2023-07-13T01:40:46;17.70;1.00
18317;DHT22;9284;52.298;21.164;2023-07-13T01:43:15;17.60;1.00
18317;DHT22;9284;52.298;21.164;2023-07-13T01:45:44;17.60;1.00
18317;DHT22;9284;52.298;21.164;2023-07-13T01:48:13;17.60;1.00
18317;DHT22;9284;52.298;21.164;2023-07-13T01:50:41;17.60;1.00
18317;DHT22;9284;52.298;21.164;2023-07-13T01:53:11;17.60;1.00
18317;DHT22;9284;52.298;21.164;2023-07-13T01:55:40;17.50;1.00
18317;DHT22;9284;52.298;21.164;2023-07-13T01:58:08;17.50;1.00
18317;DHT22;9284;52.298;21.164;2023-07-13T02:00:36;17.50;1.00
18317;DHT22;9284;52.298;21.164;2023-07-13T02:03:04;17.50;1.00
18317;DHT22;9284;52.298;21.164;2023-07-13T02:05:32;17.50;1.00
18317;DHT22;9284;52.298;21.164;2023-07-13T02:08:01;17.50;1.00
18317;DHT22;9284;52.298;21.164;2023-07-13T02:10:32;17.40;1.00
18317;DHT22;9284;52.298;21.164;2023-07-13T02:13:00;17.40;1.00
18317;DHT22;9284;52.298;21.164;2023-07-13T02:15:28;17.40;1.00
18317;DHT22;9284;52.298;21.164;2023-07-13T02:17:57;17.30;1.00
18317;DHT22;9284;52.298;21.164;2023-07-13T02:20:25;17.30;1.00
18317;DHT22;9284;52.298;21.164;2023-07-13T02:22:54;17.30;1.00
18317;DHT22;9284;52.298;21.164;2023-07-13T02:25:23;17.30;1.00
18317;DHT22;9284;52.298;21.164;2023-07-13T02:27:53;17.30;1.00
18317;DHT22;9284;52.298;21.164;2023-07-13T02:30:22;17.20;1.00
18317;DHT22;9284;52.298;21.164;2023-07-13T02:32:53;17.20;1.00
18317;DHT22;9284;52.298;21.164;2023-07-13T02:35:22;17.10;1.00
18317;DHT22;9284;52.298;21.164;2023-07-13T02:37:50;17.00;1.00
18317;DHT22;9284;52.298;21.164;2023-07-13T02:40:19;17.10;8.30
18317;DHT22;9284;52.298;21.164;2023-07-13T02:42:47;17.10;8.80
18317;DHT22;9284;52.298;21.164;2023-07-13T02:45:17;17.10;11.20
18317;DHT22;9284;52.298;21.164;2023-07-13T02:47:45;17.10;7.60
18317;DHT22;9284;52.298;21.164;2023-07-13T02:50:14;17.10;1.00
18317;DHT22;9284;52.298;21.164;2023-07-13T02:52:42;17.10;1.00
18317;DHT22;9284;52.298;21.164;2023-07-13T02:55:10;17.10;3.50
18317;DHT22;9284;52.298;21.164;2023-07-13T02:57:39;17.10;1.00
18317;DHT22;9284;52.298;21.164;2023-07-13T03:00:08;17.10;1.00
18317;DHT22;9284;52.298;21.164;2023-07-13T03:02:38;17.10;1.00
18317;DHT22;9284;52.298;21.164;2023-07-13T03:05:07;17.10;1.00
18317;DHT22;9284;52.298;21.164;2023-07-13T03:07:41;17.10;1.00
18317;DHT22;9284;52.298;21.164;2023-07-13T03:10:11;17.10;1.00
18317;DHT22;9284;52.298;21.164;2023-07-13T03:12:47;17.00;1.00
18317;DHT22;9284;52.298;21.164;2023-07-13T03:15:23;17.10;1.00
18317;DHT22;9284;52.298;21.164;2023-07-13T03:17:55;17.00;1.00
18317;DHT22;9284;52.298;21.164;2023-07-13T03:20:24;17.00;1.00
18317;DHT22;9284;52.298;21.164;2023-07-13T03:22:52;17.00;1.00
18317;DHT22;9284;52.298;21.164;2023-07-13T03:25:21;17.00;1.00
18317;DHT22;9284;52.298;21.164;2023-07-13T03:27:50;16.90;1.00
18317;DHT22;9284;52.298;21.164;2023-07-13T03:30:18;16.90;1.00
18317;DHT22;9284;52.298;21.164;2023-07-13T03:32:47;16.90;1.00
18317;DHT22;9284;52.298;21.164;2023-07-13T03:35:19;16.90;1.00
18317;DHT22;9284;52.298;21.164;2023-07-13T03:37:47;16.90;1.00
18317;DHT22;9284;52.298;21.164;2023-07-13T03:40:20;16.90;1.00
18317;DHT22;9284;52.298;21.164;2023-07-13T03:42:48;16.90;1.00
18317;DHT22;9284;52.298;21.164;2023-07-13T03:45:18;16.90;1.00
18317;DHT22;9284;52.298;21.164;2023-07-13T03:47:46;17.00;1.00
18317;DHT22;9284;52.298;21.164;2023-07-13T03:50:17;17.20;1.00
18317;DHT22;9284;52.298;21.164;2023-07-13T03:52:46;17.30;1.00
18317;DHT22;9284;52.298;21.164;2023-07-13T03:55:16;17.30;1.00
18317;DHT22;9284;52.298;21.164;2023-07-13T03:57:45;17.30;1.00
18317;DHT22;9284;52.298;21.164;2023-07-13T04:00:14;17.30;1.00
18317;DHT22;9284;52.298;21.164;2023-07-13T04:02:42;17.30;1.00
18317;DHT22;9284;52.298;21.164;2023-07-13T04:05:12;17.40;1.00
18317;DHT22;9284;52.298;21.164;2023-07-13T04:07:40;17.40;1.00
18317;DHT22;9284;52.298;21.164;2023-07-13T04:10:10;17.40;1.00
18317;DHT22;9284;52.298;21.164;2023-07-13T04:12:39;17.50;1.00
18317;DHT22;9284;52.298;21.164;2023-07-13T04:15:08;17.60;1.00
18317;DHT22;9284;52.298;21.164;2023-07-13T04:17:36;17.60;99.90
18317;DHT22;9284;52.298;21.164;2023-07-13T04:20:06;17.80;99.90
18317;DHT22;9284;52.298;21.164;2023-07-13T04:22:34;17.90;99.90
18317;DHT22;9284;52.298;21.164;2023-07-13T04:25:03;18.00;99.90
18317;DHT22;9284;52.298;21.164;2023-07-13T04:27:33;18.20;99.90
18317;DHT22;9284;52.298;21.164;2023-07-13T04:30:02;18.40;99.90
18317;DHT22;9284;52.298;21.164;2023-07-13T04:32:30;18.60;1.00
18317;DHT22;9284;52.298;21.164;2023-07-13T04:34:59;18.90;1.00
18317;DHT22;9284;52.298;21.164;2023-07-13T04:37:27;19.20;99.90
18317;DHT22;9284;52.298;21.164;2023-07-13T04:39:56;19.50;1.00
18317;DHT22;9284;52.298;21.164;2023-07-13T04:42:24;19.80;99.90
18317;DHT22;9284;52.298;21.164;2023-07-13T04:44:54;20.10;1.00
18317;DHT22;9284;52.298;21.164;2023-07-13T04:47:22;20.30;38.60
18317;DHT22;9284;52.298;21.164;2023-07-13T04:49:51;20.50;1.00
18317;DHT22;9284;52.298;21.164;2023-07-13T04:52:19;20.60;99.90
18317;DHT22;9284;52.298;21.164;2023-07-13T04:54:48;20.70;1.00
18317;DHT22;9284;52.298;21.164;2023-07-13T04:57:16;20.70;99.90
18317;DHT22;9284;52.298;21.164;2023-07-13T04:59:45;20.80;1.00
18317;DHT22;9284;52.298;21.164;2023-07-13T05:02:14;20.90;1.00
18317;DHT22;9284;52.298;21.164;2023-07-13T05:04:46;21.00;1.00
18317;DHT22;9284;52.298;21.164;2023-07-13T05:07:14;21.10;99.90
18317;DHT22;9284;52.298;21.164;2023-07-13T05:09:43;21.10;99.90
18317;DHT22;9284;52.298;21.164;2023-07-13T05:12:11;21.10;99.90
18317;DHT22;9284;52.298;21.164;2023-07-13T05:14:39;21.20;1.00
18317;DHT22;9284;52.298;21.164;2023-07-13T05:17:07;21.20;99.90
18317;DHT22;9284;52.298;21.164;2023-07-13T05:19:37;21.30;99.90
18317;DHT22;9284;52.298;21.164;2023-07-13T05:22:06;21.30;99.90
18317;DHT22;9284;52.298;21.164;2023-07-13T05:24:34;21.30;92.30
18317;DHT22;9284;52.298;21.164;2023-07-13T05:27:03;21.40;1.00
18317;DHT22;9284;52.298;21.164;2023-07-13T05:29:32;21.50;99.90
18317;DHT22;9284;52.298;21.164;2023-07-13T05:32:00;21.50;41.60
18317;DHT22;9284;52.298;21.164;2023-07-13T05:34:28;21.70;3.80
18317;DHT22;9284;52.298;21.164;2023-07-13T05:36:58;21.80;1.00
18317;DHT22;9284;52.298;21.164;2023-07-13T05:39:27;21.70;99.90
18317;DHT22;9284;52.298;21.164;2023-07-13T05:41:56;21.70;99.90
18317;DHT22;9284;52.298;21.164;2023-07-13T05:44:24;21.80;1.00
18317;DHT22;9284;52.298;21.164;2023-07-13T05:46:52;21.90;99.90
18317;DHT22;9284;52.298;21.164;2023-07-13T05:49:22;22.10;99.90
18317;DHT22;9284;52.298;21.164;2023-07-13T05:51:51;22.20;1.00
18317;DHT22;9284;52.298;21.164;2023-07-13T05:54:21;22.30;99.90
18317;DHT22;9284;52.298;21.164;2023-07-13T05:56:49;22.30;27.40
18317;DHT22;9284;52.298;21.164;2023-07-13T05:59:17;22.50;99.90
18317;DHT22;9284;52.298;21.164;2023-07-13T06:01:46;22.80;1.00
18317;DHT22;9284;52.298;21.164;2023-07-13T06:04:14;23.00;1.00
18317;DHT22;9284;52.298;21.164;2023-07-13T06:06:43;22.80;1.00
18317;DHT22;9284;52.298;21.164;2023-07-13T06:09:11;22.90;99.90
18317;DHT22;9284;52.298;21.164;2023-07-13T06:11:41;22.90;99.90
18317;DHT22;9284;52.298;21.164;2023-07-13T06:14:09;22.80;99.90
18317;DHT22;9284;52.298;21.164;2023-07-13T06:16:37;22.80;99.90
18317;DHT22;9284;52.298;21.164;2023-07-13T06:19:06;22.80;99.90
18317;DHT22;9284;52.298;21.164;2023-07-13T06:21:34;22.70;99.90
18317;DHT22;9284;52.298;21.164;2023-07-13T06:24:02;22.80;99.90
18317;DHT22;9284;52.298;21.164;2023-07-13T06:26:31;22.90;99.90
18317;DHT22;9284;52.298;21.164;2023-07-13T06:29:01;23.00;1.00
18317;DHT22;9284;52.298;21.164;2023-07-13T06:31:29;22.90;1.00
18317;DHT22;9284;52.298;21.164;2023-07-13T06:33:58;22.90;1.00
18317;DHT22;9284;52.298;21.164;2023-07-13T06:36:26;23.00;1.00
18317;DHT22;9284;52.298;21.164;2023-07-13T06:38:55;23.00;1.00
18317;DHT22;9284;52.298;21.164;2023-07-13T06:41:23;23.20;1.00
18317;DHT22;9284;52.298;21.164;2023-07-13T06:43:53;23.60;1.00
18317;DHT22;9284;52.298;21.164;2023-07-13T06:46:23;24.20;1.00
18317;DHT22;9284;52.298;21.164;2023-07-13T06:48:51;24.30;99.90
18317;DHT22;9284;52.298;21.164;2023-07-13T06:51:20;24.60;99.90
18317;DHT22;9284;52.298;21.164;2023-07-13T06:53:48;24.90;99.90
18317;DHT22;9284;52.298;21.164;2023-07-13T06:56:16;25.70;99.90
18317;DHT22;9284;52.298;21.164;2023-07-13T06:58:45;26.50;99.90
18317;DHT22;9284;52.298;21.164;2023-07-13T07:01:13;27.40;99.90
18317;DHT22;9284;52.298;21.164;2023-07-13T07:03:43;27.90;99.90
18317;DHT22;9284;52.298;21.164;2023-07-13T07:06:16;28.30;99.90
18317;DHT22;9284;52.298;21.164;2023-07-13T07:08:45;29.20;99.90
18317;DHT22;9284;52.298;21.164;2023-07-13T07:11:16;29.30;99.40
18317;DHT22;9284;52.298;21.164;2023-07-13T07:13:44;29.80;84.00
18317;DHT22;9284;52.298;21.164;2023-07-13T07:16:13;30.20;48.00
18317;DHT22;9284;52.298;21.164;2023-07-13T07:18:42;30.60;33.90
18317;DHT22;9284;52.298;21.164;2023-07-13T07:21:11;30.60;27.80
18317;DHT22;9284;52.298;21.164;2023-07-13T07:23:40;30.90;21.20
18317;DHT22;9284;52.298;21.164;2023-07-13T07:26:08;31.00;16.60
18317;DHT22;9284;52.298;21.164;2023-07-13T07:28:37;30.70;11.60
18317;DHT22;9284;52.298;21.164;2023-07-13T07:31:12;30.10;11.90
18317;DHT22;9284;52.298;21.164;2023-07-13T07:33:45;30.70;2.60
18317;DHT22;9284;52.298;21.164;2023-07-13T07:36:13;30.90;1.00
18317;DHT22;9284;52.298;21.164;2023-07-13T07:38:45;31.50;1.00
18317;DHT22;9284;52.298;21.164;2023-07-13T07:41:13;31.60;1.00
18317;DHT22;9284;52.298;21.164;2023-07-13T07:43:44;31.60;1.00
18317;DHT22;9284;52.298;21.164;2023-07-13T07:46:13;31.80;1.00
18317;DHT22;9284;52.298;21.164;2023-07-13T07:48:42;31.80;1.00
18317;DHT22;9284;52.298;21.164;2023-07-13T07:51:11;31.80;1.00
18317;DHT22;9284;52.298;21.164;2023-07-13T07:53:40;31.60;1.00
18317;DHT22;9284;52.298;21.164;2023-07-13T07:56:08;31.80;1.00
18317;DHT22;9284;52.298;21.164;2023-07-13T07:58:39;31.80;1.00
18317;DHT22;9284;52.298;21.164;2023-07-13T08:01:11;31.70;1.00
18317;DHT22;9284;52.298;21.164;2023-07-13T08:03:42;31.90;1.00
18317;DHT22;9284;52.298;21.164;2023-07-13T08:06:15;31.60;1.00
18317;DHT22;9284;52.298;21.164;2023-07-13T08:09:03;32.10;1.00
18317;DHT22;9284;52.298;21.164;2023-07-13T08:11:33;31.50;1.00
18317;DHT22;9284;52.298;21.164;2023-07-13T08:14:04;30.90;1.00
18317;DHT22;9284;52.298;21.164;2023-07-13T08:16:32;29.60;1.00
18317;DHT22;9284;52.298;21.164;2023-07-13T08:19:01;29.60;1.00
18317;DHT22;9284;52.298;21.164;2023-07-13T08:21:30;30.00;1.00
18317;DHT22;9284;52.298;21.164;2023-07-13T08:23:59;30.90;1.00
18317;DHT22;9284;52.298;21.164;2023-07-13T08:26:27;30.80;1.00
18317;DHT22;9284;52.298;21.164;2023-07-13T08:28:55;31.70;1.00
18317;DHT22;9284;52.298;21.164;2023-07-13T08:31:24;31.70;1.00
18317;DHT22;9284;52.298;21.164;2023-07-13T08:33:53;32.10;1.00
18317;DHT22;9284;52.298;21.164;2023-07-13T08:36:21;32.10;1.00
18317;DHT22;9284;52.298;21.164;2023-07-13T08:38:51;31.50;1.00
18317;DHT22;9284;52.298;21.164;2023-07-13T08:41:20;30.80;1.00
18317;DHT22;9284;52.298;21.164;2023-07-13T08:43:54;30.80;1.00
18317;DHT22;9284;52.298;21.164;2023-07-13T08:46:25;30.40;1.00
18317;DHT22;9284;52.298;21.164;2023-07-13T08:48:57;30.20;1.00
18317;DHT22;9284;52.298;21.164;2023-07-13T08:51:36;30.30;1.00
18317;DHT22;9284;52.298;21.164;2023-07-13T08:54:16;30.90;1.00
18317;DHT22;9284;52.298;21.164;2023-07-13T08:56:46;31.00;1.00
18317;DHT22;9284;52.298;21.164;2023-07-13T08:59:17;31.60;1.00
18317;DHT22;9284;52.298;21.164;2023-07-13T09:01:58;32.40;1.00
18317;DHT22;9284;52.298;21.164;2023-07-13T09:04:31;32.10;1.00
18317;DHT22;9284;52.298;21.164;2023-07-13T09:07:05;31.50;1.00
18317;DHT22;9284;52.298;21.164;2023-07-13T09:09:45;31.30;1.00
18317;DHT22;9284;52.298;21.164;2023-07-13T09:12:24;30.70;1.00
18317;DHT22;9284;52.298;21.164;2023-07-13T09:14:56;29.50;1.00
18317;DHT22;9284;52.298;21.164;2023-07-13T09:17:28;29.10;1.00
18317;DHT22;9284;52.298;21.164;2023-07-13T09:19:59;28.30;1.00
18317;DHT22;9284;52.298;21.164;2023-07-13T09:22:33;28.30;1.00
18317;DHT22;9284;52.298;21.164;2023-07-13T09:25:13;28.20;1.00
18317;DHT22;9284;52.298;21.164;2023-07-13T09:27:49;27.80;1.00
18317;DHT22;9284;52.298;21.164;2023-07-13T09:30:27;27.20;1.00
18317;DHT22;9284;52.298;21.164;2023-07-13T09:32:58;26.30;1.00
18317;DHT22;9284;52.298;21.164;2023-07-13T09:35:28;25.40;1.00
18317;DHT22;9284;52.298;21.164;2023-07-13T09:37:59;24.60;1.00
18317;DHT22;9284;52.298;21.164;2023-07-13T09:40:38;24.20;1.00
18317;DHT22;9284;52.298;21.164;2023-07-13T09:43:10;24.00;1.00
18317;DHT22;9284;52.298;21.164;2023-07-13T09:45:41;24.00;1.00
18317;DHT22;9284;52.298;21.164;2023-07-13T09:48:14;24.30;1.00
18317;DHT22;9284;52.298;21.164;2023-07-13T09:50:44;24.80;1.00
18317;DHT22;9284;52.298;21.164;2023-07-13T09:53:14;25.50;1.00
18317;DHT22;9284;52.298;21.164;2023-07-13T09:55:46;25.90;1.00
18317;DHT22;9284;52.298;21.164;2023-07-13T09:58:21;26.20;1.00
18317;DHT22;9284;52.298;21.164;2023-07-13T10:00:55;26.40;1.00
18317;DHT22;9284;52.298;21.164;2023-07-13T10:03:26;26.90;1.00
18317;DHT22;9284;52.298;21.164;2023-07-13T10:06:03;26.80;1.00
18317;DHT22;9284;52.298;21.164;2023-07-13T10:08:35;26.40;1.00
18317;DHT22;9284;52.298;21.164;2023-07-13T10:11:12;26.20;1.00
18317;DHT22;9284;52.298;21.164;2023-07-13T10:13:44;25.60;1.00
18317;DHT22;9284;52.298;21.164;2023-07-13T10:16:13;25.10;1.00
18317;DHT22;9284;52.298;21.164;2023-07-13T10:18:45;24.80;1.00
18317;DHT22;9284;52.298;21.164;2023-07-13T10:21:16;24.30;1.00
18317;DHT22;9284;52.298;21.164;2023-07-13T10:23:51;24.20;1.00
18317;DHT22;9284;52.298;21.164;2023-07-13T10:26:26;24.20;1.00
18317;DHT22;9284;52.298;21.164;2023-07-13T10:28:57;24.20;1.00
18317;DHT22;9284;52.298;21.164;2023-07-13T10:31:27;24.30;1.00
18317;DHT22;9284;52.298;21.164;2023-07-13T10:33:55;24.30;1.00
18317;DHT22;9284;52.298;21.164;2023-07-13T10:36:31;24.60;1.00
18317;DHT22;9284;52.298;21.164;2023-07-13T10:39:03;24.70;1.00
18317;DHT22;9284;52.298;21.164;2023-07-13T10:41:38;24.70;1.00
18317;DHT22;9284;52.298;21.164;2023-07-13T10:44:15;24.50;1.00
18317;DHT22;9284;52.298;21.164;2023-07-13T10:46:47;24.40;1.00
18317;DHT22;9284;52.298;21.164;2023-07-13T10:49:16;24.30;1.00
18317;DHT22;9284;52.298;21.164;2023-07-13T10:51:45;24.30;1.00
18317;DHT22;9284;52.298;21.164;2023-07-13T10:54:17;24.30;1.00
18317;DHT22;9284;52.298;21.164;2023-07-13T10:56:50;24.30;1.00
18317;DHT22;9284;52.298;21.164;2023-07-13T10:59:26;24.00;1.00
18317;DHT22;9284;52.298;21.164;2023-07-13T11:01:58;23.50;1.00
18317;DHT22;9284;52.298;21.164;2023-07-13T11:04:29;23.20;1.00
18317;DHT22;9284;52.298;21.164;2023-07-13T11:06:59;22.80;1.00
18317;DHT22;9284;52.298;21.164;2023-07-13T11:09:39;22.60;3.00
18317;DHT22;9284;52.298;21.164;2023-07-13T11:12:26;22.30;99.90
18317;DHT22;9284;52.298;21.164;2023-07-13T11:15:05;22.10;99.90
18317;DHT22;9284;52.298;21.164;2023-07-13T11:17:37;21.90;99.90
18317;DHT22;9284;52.298;21.164;2023-07-13T11:23:26;21.40;1.00
18317;DHT22;9284;52.298;21.164;2023-07-13T11:25:55;21.10;1.00
18317;DHT22;9284;52.298;21.164;2023-07-13T11:28:27;20.80;99.90
18317;DHT22;9284;52.298;21.164;2023-07-13T11:31:03;20.50;99.90
18317;DHT22;9284;52.298;21.164;2023-07-13T11:33:57;20.20;99.90
18317;DHT22;9284;52.298;21.164;2023-07-13T11:36:31;20.00;99.90
18317;DHT22;9284;52.298;21.164;2023-07-13T11:39:03;19.70;99.90
18317;DHT22;9284;52.298;21.164;2023-07-13T11:41:36;19.70;99.90
18317;DHT22;9284;52.298;21.164;2023-07-13T11:44:13;19.50;1.00
18317;DHT22;9284;52.298;21.164;2023-07-13T11:46:46;19.40;1.00
18317;DHT22;9284;52.298;21.164;2023-07-13T11:49:19;19.40;1.00
18317;DHT22;9284;52.298;21.164;2023-07-13T11:51:51;19.40;1.00
18317;DHT22;9284;52.298;21.164;2023-07-13T11:54:25;19.30;99.90
18317;DHT22;9284;52.298;21.164;2023-07-13T11:56:56;19.30;1.00
18317;DHT22;9284;52.298;21.164;2023-07-13T11:59:29;19.30;99.90
18317;DHT22;9284;52.298;21.164;2023-07-13T12:01:59;19.20;99.90
18317;DHT22;9284;52.298;21.164;2023-07-13T12:04:32;19.30;99.90
18317;DHT22;9284;52.298;21.164;2023-07-13T12:07:07;19.30;99.90
18317;DHT22;9284;52.298;21.164;2023-07-13T12:09:36;19.30;1.00
18317;DHT22;9284;52.298;21.164;2023-07-13T12:12:10;19.40;1.00
18317;DHT22;9284;52.298;21.164;2023-07-13T12:14:41;19.40;1.00
18317;DHT22;9284;52.298;21.164;2023-07-13T12:17:18;19.40;99.90
18317;DHT22;9284;52.298;21.164;2023-07-13T12:19:48;19.40;1.00
18317;DHT22;9284;52.298;21.164;2023-07-13T12:22:18;19.40;1.00
18317;DHT22;9284;52.298;21.164;2023-07-13T12:24:48;19.40;1.00
18317;DHT22;9284;52.298;21.164;2023-07-13T12:27:20;19.40;38.90
18317;DHT22;9284;52.298;21.164;2023-07-13T12:29:52;19.30;1.00
18317;DHT22;9284;52.298;21.164;2023-07-13T12:32:26;19.20;99.90
18317;DHT22;9284;52.298;21.164;2023-07-13T12:34:55;19.10;6.70
18317;DHT22;9284;52.298;21.164;2023-07-13T12:37:24;19.00;1.00
18317;DHT22;9284;52.298;21.164;2023-07-13T12:39:52;18.80;99.90
18317;DHT22;9284;52.298;21.164;2023-07-13T12:42:23;18.80;99.90
18317;DHT22;9284;52.298;21.164;2023-07-13T12:44:58;18.80;1.00
18317;DHT22;9284;52.298;21.164;2023-07-13T12:47:28;18.90;1.00
18317;DHT22;9284;52.298;21.164;2023-07-13T12:49:59;18.90;1.00
18317;DHT22;9284;52.298;21.164;2023-07-13T12:52:30;18.90;1.00
18317;DHT22;9284;52.298;21.164;2023-07-13T12:55:05;19.10;23.60
18317;DHT22;9284;52.298;21.164;2023-07-13T12:57:39;19.30;43.30
18317;DHT22;9284;52.298;21.164;2023-07-13T13:00:23;19.40;17.80
18317;DHT22;9284;52.298;21.164;2023-07-13T13:02:53;19.40;10.60
18317;DHT22;9284;52.298;21.164;2023-07-13T13:05:41;19.50;52.20
18317;DHT22;9284;52.298;21.164;2023-07-13T13:08:12;19.40;1.00
18317;DHT22;9284;52.298;21.164;2023-07-13T13:10:41;19.40;1.00
18317;DHT22;9284;52.298;21.164;2023-07-13T13:13:09;19.50;1.00
18317;DHT22;9284;52.298;21.164;2023-07-13T13:15:40;19.50;11.00
18317;DHT22;9284;52.298;21.164;2023-07-13T13:18:16;19.40;9.10
18317;DHT22;9284;52.298;21.164;2023-07-13T13:20:45;19.30;1.00
18317;DHT22;9284;52.298;21.164;2023-07-13T13:23:14;19.20;1.00
18317;DHT22;9284;52.298;21.164;2023-07-13T13:25:46;19.10;1.00
18317;DHT22;9284;52.298;21.164;2023-07-13T13:28:16;19.10;37.10
18317;DHT22;9284;52.298;21.164;2023-07-13T13:30:48;19.10;42.90
18317;DHT22;9284;52.298;21.164;2023-07-13T13:33:19;19.20;98.10
18317;DHT22;9284;52.298;21.164;2023-07-13T13:35:49;19.20;99.90
18317;DHT22;9284;52.298;21.164;2023-07-13T13:38:20;19.30;99.90
18317;DHT22;9284;52.298;21.164;2023-07-13T13:40:49;19.30;99.90
18317;DHT22;9284;52.298;21.164;2023-07-13T13:43:18;19.30;99.90
18317;DHT22;9284;52.298;21.164;2023-07-13T13:45:48;19.20;99.90
18317;DHT22;9284;52.298;21.164;2023-07-13T13:48:19;19.20;99.90
18317;DHT22;9284;52.298;21.164;2023-07-13T13:50:48;19.20;99.90
18317;DHT22;9284;52.298;21.164;2023-07-13T13:53:17;19.30;99.90
18317;DHT22;9284;52.298;21.164;2023-07-13T13:55:45;19.30;99.90
18317;DHT22;9284;52.298;21.164;2023-07-13T13:58:13;19.30;99.90
18317;DHT22;9284;52.298;21.164;2023-07-13T14:00:42;19.30;99.90
18317;DHT22;9284;52.298;21.164;2023-07-13T14:03:17;19.40;99.90
18317;DHT22;9284;52.298;21.164;2023-07-13T14:05:49;19.40;99.90
18317;DHT22;9284;52.298;21.164;2023-07-13T14:08:24;19.50;99.90
18317;DHT22;9284;52.298;21.164;2023-07-13T14:11:15;19.50;99.90
18317;DHT22;9284;52.298;21.164;2023-07-13T14:13:55;19.50;99.90
18317;DHT22;9284;52.298;21.164;2023-07-13T14:16:44;19.50;99.90
18317;DHT22;9284;52.298;21.164;2023-07-13T14:22:33;19.50;99.90
18317;DHT22;9284;52.298;21.164;2023-07-13T14:25:13;19.50;99.90
18317;DHT22;9284;52.298;21.164;2023-07-13T14:31:48;19.70;99.90
18317;DHT22;9284;52.298;21.164;2023-07-13T14:34:17;19.70;99.90
18317;DHT22;9284;52.298;21.164;2023-07-13T14:36:48;19.70;99.90
18317;DHT22;9284;52.298;21.164;2023-07-13T14:39:20;19.70;99.90
18317;DHT22;9284;52.298;21.164;2023-07-13T14:41:50;19.80;99.90
18317;DHT22;9284;52.298;21.164;2023-07-13T14:44:21;19.90;99.90
18317;DHT22;9284;52.298;21.164;2023-07-13T14:46:51;19.90;99.90
18317;DHT22;9284;52.298;21.164;2023-07-13T14:49:25;19.80;99.90
18317;DHT22;9284;52.298;21.164;2023-07-13T14:51:56;19.80;99.90
18317;DHT22;9284;52.298;21.164;2023-07-13T14:54:25;19.70;99.90
18317;DHT22;9284;52.298;21.164;2023-07-13T14:56:54;19.70;99.90
18317;DHT22;9284;52.298;21.164;2023-07-13T14:59:22;19.70;99.90
18317;DHT22;9284;52.298;21.164;2023-07-13T15:01:51;19.60;99.90
18317;DHT22;9284;52.298;21.164;2023-07-13T15:04:19;19.60;99.90
18317;DHT22;9284;52.298;21.164;2023-07-13T15:06:57;19.60;99.90
18317;DHT22;9284;52.298;21.164;2023-07-13T15:09:26;19.50;99.90
18317;DHT22;9284;52.298;21.164;2023-07-13T15:11:56;19.50;99.90
18317;DHT22;9284;52.298;21.164;2023-07-13T15:14:25;19.60;99.90
18317;DHT22;9284;52.298;21.164;2023-07-13T15:16:57;19.50;99.90
18317;DHT22;9284;52.298;21.164;2023-07-13T15:19:25;19.60;99.90
18317;DHT22;9284;52.298;21.164;2023-07-13T15:21:56;19.60;99.90
18317;DHT22;9284;52.298;21.164;2023-07-13T15:24:26;19.60;99.90
18317;DHT22;9284;52.298;21.164;2023-07-13T15:26:54;19.60;99.90
18317;DHT22;9284;52.298;21.164;2023-07-13T15:29:23;19.60;99.90
18317;DHT22;9284;52.298;21.164;2023-07-13T15:31:51;19.60;99.90
18317;DHT22;9284;52.298;21.164;2023-07-13T15:34:23;19.60;99.90
18317;DHT22;9284;52.298;21.164;2023-07-13T15:36:53;19.50;99.90
18317;DHT22;9284;52.298;21.164;2023-07-13T15:39:23;19.50;99.90
18317;DHT22;9284;52.298;21.164;2023-07-13T15:41:52;19.40;99.90
18317;DHT22;9284;52.298;21.164;2023-07-13T15:44:25;19.50;99.90
18317;DHT22;9284;52.298;21.164;2023-07-13T15:46:54;19.50;99.90
18317;DHT22;9284;52.298;21.164;2023-07-13T15:49:23;19.60;99.90
18317;DHT22;9284;52.298;21.164;2023-07-13T15:51:52;19.60;99.90
18317;DHT22;9284;52.298;21.164;2023-07-13T15:54:20;19.50;99.90
18317;DHT22;9284;52.298;21.164;2023-07-13T15:56:52;19.50;99.90
18317;DHT22;9284;52.298;21.164;2023-07-13T15:59:21;19.50;99.90
18317;DHT22;9284;52.298;21.164;2023-07-13T16:01:50;19.50;97.50
18317;DHT22;9284;52.298;21.164;2023-07-13T16:04:18;19.50;88.80
18317;DHT22;9284;52.298;21.164;2023-07-13T16:06:47;19.50;99.90
18317;DHT22;9284;52.298;21.164;2023-07-13T16:09:19;19.50;99.90
18317;DHT22;9284;52.298;21.164;2023-07-13T16:11:51;19.50;92.80
18317;DHT22;9284;52.298;21.164;2023-07-13T16:14:21;19.50;3.70